createdAt,value
2023-04-19T00:00:57.725Z,3.33
2023-04-19T00:03:26.340Z,3.87
2023-04-19T00:05:55.062Z,3.00
2023-04-19T00:08:23.180Z,3.30
2023-04-19T00:10:53.211Z,2.97
2023-04-19T00:13:21.922Z,3.10
2023-04-19T00:15:50.132Z,3.23
2023-04-19T00:18:18.266Z,3.20
2023-04-19T00:20:46.625Z,2.50
2023-04-19T00:23:14.763Z,2.07
2023-04-19T00:25:42.925Z,3.03
2023-04-19T00:28:12.444Z,2.30
2023-04-19T00:30:40.751Z,2.40
2023-04-19T00:33:13.164Z,2.70
2023-04-19T00:35:42.313Z,2.40
2023-04-19T00:38:10.601Z,2.40
2023-04-19T00:40:39.156Z,2.63
2023-04-19T00:43:07.602Z,2.37
2023-04-19T00:45:37.691Z,2.73
2023-04-19T00:48:06.642Z,2.30
2023-04-19T00:50:36.083Z,2.60
2023-04-19T00:53:04.457Z,1.93
2023-04-19T00:55:32.807Z,1.80
2023-04-19T00:58:01.102Z,2.10
2023-04-19T01:00:29.330Z,2.20
2023-04-19T01:02:59.168Z,1.97
2023-04-19T01:05:27.574Z,2.40
2023-04-19T01:07:56.210Z,2.80
2023-04-19T01:10:24.419Z,2.90
2023-04-19T01:12:52.731Z,1.90
2023-04-19T01:15:21.210Z,2.00
2023-04-19T01:17:50.988Z,2.17
2023-04-19T01:20:21.050Z,2.20
2023-04-19T01:22:50.610Z,2.00
2023-04-19T01:25:18.807Z,2.80
2023-04-19T01:27:47.020Z,2.20
2023-04-19T01:30:15.429Z,2.43
2023-04-19T01:32:43.755Z,2.73
2023-04-19T01:35:12.565Z,2.47
2023-04-19T01:37:40.716Z,2.73
2023-04-19T01:40:14.143Z,2.50
2023-04-19T01:42:42.401Z,2.53
2023-04-19T01:45:11.528Z,2.43
2023-04-19T01:47:39.757Z,2.60
2023-04-19T01:50:09.438Z,2.00
2023-04-19T01:52:37.737Z,2.20
2023-04-19T01:55:06.958Z,2.77
2023-04-19T01:57:36.466Z,2.30
2023-04-19T02:00:05.433Z,2.17
2023-04-19T02:02:42.902Z,2.20
2023-04-19T02:05:11.577Z,2.20
2023-04-19T02:07:39.772Z,2.03
2023-04-19T02:10:11.176Z,2.27
2023-04-19T02:12:42.317Z,2.10
2023-04-19T02:15:11.152Z,1.70
2023-04-19T02:17:40.548Z,2.43
2023-04-19T02:20:09.874Z,2.80
2023-04-19T02:22:38.035Z,2.90
2023-04-19T02:25:06.925Z,2.63
2023-04-19T02:27:35.152Z,2.23
2023-04-19T02:30:05.132Z,2.60
2023-04-19T02:32:35.077Z,2.50
2023-04-19T02:35:03.721Z,3.50
2023-04-19T02:37:32.277Z,3.07
2023-04-19T02:40:00.440Z,1.90
2023-04-19T02:42:30.744Z,2.53
2023-04-19T02:44:59.022Z,2.60
2023-04-19T02:47:28.556Z,2.50
2023-04-19T02:49:56.707Z,3.80
2023-04-19T02:52:24.870Z,2.80
2023-04-19T02:54:53.062Z,2.80
2023-04-19T02:57:21.447Z,2.90
2023-04-19T02:59:50.363Z,2.20
2023-04-19T03:02:18.934Z,3.20
2023-04-19T03:04:48.799Z,2.90
2023-04-19T03:07:17.066Z,3.07
2023-04-19T03:09:45.519Z,2.40
2023-04-19T03:12:13.659Z,2.23
2023-04-19T03:14:43.489Z,2.17
2023-04-19T03:17:12.171Z,2.47
2023-04-19T03:19:40.327Z,2.57
2023-04-19T03:22:09.945Z,2.30
2023-04-19T03:24:38.637Z,4.40
2023-04-19T03:27:18.196Z,3.00
2023-04-19T03:29:49.689Z,2.60
2023-04-19T03:32:17.838Z,2.20
2023-04-19T03:34:46.067Z,4.33
2023-04-19T03:37:18.583Z,2.47
2023-04-19T03:39:47.725Z,4.23
2023-04-19T03:42:21.689Z,2.27
2023-04-19T03:44:59.301Z,2.63
2023-04-19T03:47:29.542Z,2.90
2023-04-19T03:49:59.260Z,2.63
2023-04-19T03:52:29.982Z,2.30
2023-04-19T03:54:58.172Z,1.87
2023-04-19T03:57:37.187Z,2.60
2023-04-19T04:00:13.828Z,3.53
2023-04-19T04:02:44.920Z,2.07
2023-04-19T04:05:15.005Z,2.63
2023-04-19T04:07:44.606Z,2.30
2023-04-19T04:10:13.480Z,2.33
2023-04-19T04:12:44.381Z,2.60
2023-04-19T04:15:17.628Z,3.00
2023-04-19T04:17:51.519Z,2.43
2023-04-19T04:20:21.441Z,2.10
2023-04-19T04:22:53.499Z,2.03
2023-04-19T04:25:23.103Z,2.17
2023-04-19T04:27:52.617Z,2.40
2023-04-19T04:30:24.338Z,1.93
2023-04-19T04:32:58.087Z,2.23
2023-04-19T04:35:29.887Z,1.70
2023-04-19T04:38:17.435Z,2.00
2023-04-19T04:40:53.875Z,1.80
2023-04-19T04:43:22.844Z,2.30
2023-04-19T04:45:51.864Z,1.70
2023-04-19T04:48:20.608Z,2.30
2023-04-19T04:50:48.738Z,1.23
2023-04-19T04:53:18.213Z,1.67
2023-04-19T04:55:47.743Z,2.23
2023-04-19T04:58:16.619Z,1.20
2023-04-19T05:01:11.226Z,1.43
2023-04-19T05:03:41.633Z,1.60
2023-04-19T05:06:15.751Z,2.87
2023-04-19T05:08:45.589Z,2.07
2023-04-19T05:11:22.262Z,2.23
2023-04-19T05:13:50.431Z,1.33
2023-04-19T05:16:18.752Z,2.60
2023-04-19T05:18:49.064Z,2.10
2023-04-19T05:21:17.442Z,1.27
2023-04-19T05:23:47.246Z,2.67
2023-04-19T05:26:16.535Z,2.50
2023-04-19T05:28:46.629Z,2.67
2023-04-19T05:31:23.147Z,1.17
2023-04-19T05:34:07.507Z,1.57
2023-04-19T05:36:35.761Z,1.23
2023-04-19T05:39:05.883Z,2.60
2023-04-19T05:41:34.224Z,1.00
2023-04-19T05:44:02.585Z,1.53
2023-04-19T05:46:30.814Z,3.40
2023-04-19T05:48:59.754Z,2.10
2023-04-19T05:51:28.252Z,2.90
2023-04-19T05:54:12.700Z,2.47
2023-04-19T05:56:42.215Z,1.57
2023-04-19T05:59:11.606Z,1.90
2023-04-19T06:01:39.837Z,1.40
2023-04-19T06:04:08.166Z,1.73
2023-04-19T06:06:38.152Z,2.13
2023-04-19T06:09:07.858Z,1.57
2023-04-19T06:11:43.091Z,1.47
2023-04-19T06:14:18.304Z,1.47
2023-04-19T06:16:46.874Z,1.10
2023-04-19T06:19:15.266Z,2.57
2023-04-19T06:21:43.402Z,1.10
2023-04-19T06:24:11.632Z,1.40
2023-04-19T06:26:41.100Z,1.23
2023-04-19T06:29:09.236Z,1.20
2023-04-19T06:31:37.493Z,1.67
2023-04-19T06:34:05.650Z,1.40
2023-04-19T06:36:33.929Z,1.20
2023-04-19T06:39:02.091Z,1.80
2023-04-19T06:41:30.261Z,1.60
2023-04-19T06:44:00.102Z,2.43
2023-04-19T06:46:28.937Z,1.80
2023-04-19T06:48:57.152Z,2.90
2023-04-19T06:51:25.951Z,1.60
2023-04-19T06:53:54.107Z,1.60
2023-04-19T06:56:40.774Z,1.50
2023-04-19T06:59:10.281Z,1.00
2023-04-19T07:01:39.470Z,2.07
2023-04-19T07:04:08.074Z,1.80
2023-04-19T07:06:36.693Z,1.70
2023-04-19T07:09:06.018Z,2.00
2023-04-19T07:11:34.709Z,2.17
2023-04-19T07:14:02.976Z,1.97
2023-04-19T07:16:32.509Z,1.97
2023-04-19T07:19:00.647Z,2.37
2023-04-19T07:21:33.176Z,2.00
2023-04-19T07:24:01.403Z,1.60
2023-04-19T07:26:29.621Z,2.50
2023-04-19T07:28:58.261Z,1.20
2023-04-19T07:31:26.919Z,1.30
2023-04-19T07:33:56.489Z,1.40
2023-04-19T07:36:24.605Z,1.60
2023-04-19T07:38:52.745Z,1.37
2023-04-19T07:41:22.010Z,1.70
2023-04-19T07:43:50.403Z,2.00
2023-04-19T07:46:18.805Z,1.50
2023-04-19T07:48:47.181Z,1.70
2023-04-19T07:51:17.858Z,1.53
2023-04-19T07:53:47.723Z,2.40
2023-04-19T07:56:16.808Z,1.80
2023-04-19T07:58:46.742Z,1.80
2023-04-19T08:01:19.243Z,1.83
2023-04-19T08:03:47.960Z,1.47
2023-04-19T08:06:18.265Z,2.10
2023-04-19T08:08:46.598Z,1.90
2023-04-19T08:11:15.050Z,1.97
2023-04-19T08:13:51.560Z,2.47
2023-04-19T08:17:06.573Z,2.77
2023-04-19T08:19:17.688Z,2.17
2023-04-19T08:21:48.037Z,2.40
2023-04-19T08:24:16.412Z,2.87
2023-04-19T08:26:45.008Z,2.20
2023-04-19T08:29:13.087Z,2.03
2023-04-19T08:31:44.975Z,2.17
2023-04-19T08:34:13.212Z,2.90
2023-04-19T08:36:51.599Z,2.20
2023-04-19T08:39:33.091Z,2.63
2023-04-19T08:42:09.265Z,2.33
2023-04-19T08:44:48.960Z,2.60
2023-04-19T08:47:32.435Z,2.40
2023-04-19T08:52:37.281Z,2.40
2023-04-19T08:55:14.280Z,3.07
2023-04-19T08:57:42.530Z,3.00
2023-04-19T09:00:11.950Z,2.33
2023-04-19T09:02:48.734Z,2.43
2023-04-19T09:05:18.875Z,3.07
2023-04-19T09:07:47.509Z,4.23
2023-04-19T09:10:18.556Z,2.20
2023-04-19T09:13:01.879Z,2.43
2023-04-19T09:15:39.185Z,3.10
2023-04-19T09:18:09.895Z,3.20
2023-04-19T09:20:39.036Z,2.10
2023-04-19T09:23:08.816Z,2.67
2023-04-19T09:25:59.319Z,2.30
2023-04-19T09:28:26.448Z,3.43
2023-04-19T09:31:05.668Z,2.97
2023-04-19T09:33:45.208Z,2.60
2023-04-19T09:36:28.047Z,2.70
2023-04-19T09:38:56.354Z,2.80
2023-04-19T09:41:26.168Z,2.40
2023-04-19T09:46:33.315Z,3.10
2023-04-19T09:49:27.790Z,2.30
2023-04-19T09:52:06.576Z,2.47
2023-04-19T09:54:35.053Z,2.60
2023-04-19T09:57:04.888Z,3.40
2023-04-19T09:59:33.059Z,2.77
2023-04-19T10:02:02.490Z,3.30
2023-04-19T10:04:47.935Z,2.40
2023-04-19T10:07:29.961Z,2.30
2023-04-19T10:15:07.033Z,2.30
2023-04-19T10:17:35.899Z,2.30
2023-04-19T10:20:09.447Z,2.30
2023-04-19T10:22:38.753Z,3.43
2023-04-19T10:25:12.866Z,2.17
2023-04-19T10:27:48.568Z,2.97
2023-04-19T10:30:18.587Z,2.40
2023-04-19T10:32:52.364Z,2.80
2023-04-19T10:35:22.023Z,3.50
2023-04-19T10:38:08.392Z,3.37
2023-04-19T10:40:56.689Z,3.33
2023-04-19T10:43:26.834Z,2.90
2023-04-19T10:45:55.100Z,3.40
2023-04-19T10:48:34.125Z,3.23
2023-04-19T10:51:03.830Z,3.03
2023-04-19T10:53:48.224Z,3.53
2023-04-19T10:56:17.738Z,3.37
2023-04-19T11:01:54.312Z,2.60
2023-04-19T11:04:27.413Z,3.30
2023-04-19T11:07:02.046Z,2.90
2023-04-19T11:09:34.181Z,2.57
2023-04-19T11:12:04.403Z,3.60
2023-04-19T11:14:35.024Z,2.50
2023-04-19T11:17:16.222Z,2.57
2023-04-19T11:19:45.816Z,2.50
2023-04-19T11:22:13.946Z,2.80
2023-04-19T11:24:48.055Z,3.17
2023-04-19T11:27:16.590Z,2.63
2023-04-19T11:29:44.904Z,2.83
2023-04-19T11:32:14.520Z,2.80
2023-04-19T11:34:42.734Z,2.37
2023-04-19T11:37:11.074Z,2.63
2023-04-19T11:39:47.248Z,2.70
2023-04-19T11:42:20.371Z,2.30
2023-04-19T11:44:52.883Z,2.40
2023-04-19T11:47:22.404Z,2.40
2023-04-19T11:49:50.580Z,2.63
2023-04-19T11:52:23.790Z,2.47
2023-04-19T11:54:52.824Z,2.03
2023-04-19T11:57:42.362Z,3.00
2023-04-19T12:00:14.323Z,2.47
2023-04-19T12:02:45.341Z,2.50
2023-04-19T12:05:16.837Z,3.10
2023-04-19T12:08:04.780Z,3.27
2023-04-19T12:10:33.240Z,3.27
2023-04-19T12:13:01.533Z,3.00
2023-04-19T12:15:43.068Z,3.20
2023-04-19T12:18:12.823Z,2.10
2023-04-19T12:20:46.649Z,2.87
2023-04-19T12:23:15.906Z,3.03
2023-04-19T12:25:46.136Z,3.33
2023-04-19T12:28:15.554Z,2.80
2023-04-19T12:30:43.952Z,3.20
2023-04-19T12:33:13.689Z,3.87
2023-04-19T12:35:42.942Z,3.00
2023-04-19T12:38:11.292Z,3.27
2023-04-19T12:40:39.409Z,4.00
2023-04-19T12:43:08.404Z,4.03
2023-04-19T12:45:36.720Z,4.40
2023-04-19T12:48:05.209Z,4.30
2023-04-19T12:50:34.817Z,3.57
2023-04-19T12:53:03.724Z,3.33
2023-04-19T12:55:31.878Z,3.17
2023-04-19T12:57:59.998Z,3.33
2023-04-19T13:00:30.116Z,3.23
2023-04-19T13:02:58.433Z,3.40
2023-04-19T13:05:26.736Z,3.77
2023-04-19T13:07:56.527Z,5.43
2023-04-19T13:10:24.693Z,4.13
2023-04-19T13:12:52.828Z,3.80
2023-04-19T13:15:20.972Z,3.47
2023-04-19T13:17:49.257Z,3.70
2023-04-19T13:20:18.220Z,5.03
2023-04-19T13:22:46.379Z,5.27
2023-04-19T13:25:15.875Z,4.80
2023-04-19T13:27:44.028Z,4.67
2023-04-19T13:30:12.952Z,4.43
2023-04-19T13:32:41.134Z,5.10
2023-04-19T13:35:10.310Z,5.13
2023-04-19T13:37:40.265Z,6.53
2023-04-19T13:40:18.759Z,5.93
2023-04-19T13:42:48.522Z,5.60
2023-04-19T13:45:16.677Z,7.53
2023-04-19T13:47:44.838Z,4.83
2023-04-19T13:50:13.692Z,5.90
2023-04-19T13:52:42.186Z,5.90
2023-04-19T13:55:11.036Z,6.83
2023-04-19T13:57:39.167Z,5.30
2023-04-19T14:00:09.998Z,5.50
2023-04-19T14:02:38.658Z,6.20
2023-04-19T14:05:07.754Z,6.03
2023-04-19T14:07:35.941Z,6.73
2023-04-19T14:10:04.186Z,6.87
2023-04-19T14:12:32.399Z,4.80
2023-04-19T14:15:00.669Z,4.67
2023-04-19T14:17:30.202Z,5.60
2023-04-19T14:19:58.375Z,5.53
2023-04-19T14:22:26.600Z,5.27
2023-04-19T14:24:54.759Z,5.90
2023-04-19T14:27:22.894Z,5.73
2023-04-19T14:29:51.149Z,7.23
2023-04-19T14:32:25.325Z,5.13
2023-04-19T14:34:56.334Z,6.00
2023-04-19T14:37:26.011Z,6.57
2023-04-19T14:39:54.322Z,5.63
2023-04-19T14:42:23.034Z,5.30
2023-04-19T14:44:52.753Z,6.17
2023-04-19T14:47:21.859Z,5.60
2023-04-19T14:49:50.516Z,5.60
2023-04-19T14:52:19.996Z,5.70
2023-04-19T14:54:48.207Z,7.40
2023-04-19T14:57:16.413Z,6.13
2023-04-19T14:59:44.512Z,6.60
2023-04-19T15:02:13.440Z,7.00
2023-04-19T15:04:42.406Z,5.57
2023-04-19T15:07:11.041Z,6.53
2023-04-19T15:09:41.361Z,6.03
2023-04-19T15:12:09.538Z,6.20
2023-04-19T15:14:37.700Z,7.00
2023-04-19T15:17:06.161Z,7.47
2023-04-19T15:19:34.349Z,6.20
2023-04-19T15:22:03.979Z,6.93
2023-04-19T15:24:32.749Z,7.07
2023-04-19T15:27:02.620Z,8.50
2023-04-19T15:29:30.804Z,7.57
2023-04-19T15:31:58.994Z,6.97
2023-04-19T15:34:27.170Z,7.47
2023-04-19T15:36:55.418Z,7.33
2023-04-19T15:39:23.545Z,7.70
2023-04-19T15:41:51.982Z,7.20
2023-04-19T15:44:21.428Z,8.97
2023-04-19T15:46:49.555Z,8.77
2023-04-19T15:49:19.079Z,9.00
2023-04-19T15:51:47.394Z,8.87
2023-04-19T15:54:16.177Z,7.60
2023-04-19T15:56:44.296Z,7.30
2023-04-19T15:59:12.650Z,7.73
2023-04-19T16:01:42.530Z,7.03
2023-04-19T16:04:11.074Z,7.60
2023-04-19T16:06:39.394Z,7.67
2023-04-19T16:09:08.213Z,7.30
2023-04-19T16:11:36.451Z,6.93
2023-04-19T16:14:04.584Z,7.60
2023-04-19T16:16:34.360Z,7.97
2023-04-19T16:19:04.441Z,6.80
2023-04-19T16:21:32.618Z,7.00
2023-04-19T16:24:01.684Z,7.50
2023-04-19T16:26:29.820Z,6.70
2023-04-19T16:28:59.171Z,6.57
2023-04-19T16:31:27.642Z,6.80
2023-04-19T16:33:55.930Z,7.30
2023-04-19T16:36:25.420Z,5.80
2023-04-19T16:38:53.546Z,7.47
2023-04-19T16:41:21.696Z,6.97
2023-04-19T16:43:49.932Z,6.63
2023-04-19T16:46:18.158Z,7.60
2023-04-19T16:48:46.431Z,7.50
2023-04-19T16:51:14.561Z,8.37
2023-04-19T16:53:45.665Z,7.37
2023-04-19T16:56:14.305Z,7.23
2023-04-19T16:58:42.537Z,7.00
2023-04-19T17:01:10.742Z,7.73
2023-04-19T17:03:39.112Z,8.93
2023-04-19T17:06:07.848Z,7.63
2023-04-19T17:08:38.261Z,7.20
2023-04-19T17:11:07.885Z,7.10
2023-04-19T17:13:36.085Z,8.53
2023-04-19T17:16:04.699Z,7.70
2023-04-19T17:18:33.031Z,8.80
2023-04-19T17:21:01.212Z,7.70
2023-04-19T17:23:29.373Z,7.70
2023-04-19T17:25:57.509Z,7.80
2023-04-19T17:28:28.249Z,8.37
2023-04-19T17:30:56.507Z,9.03
2023-04-19T17:33:24.661Z,8.53
2023-04-19T17:35:52.914Z,11.27
2023-04-19T17:38:21.130Z,11.17
2023-04-19T17:40:49.332Z,9.57
2023-04-19T17:43:17.615Z,9.03
2023-04-19T17:45:47.112Z,9.80
2023-04-19T17:48:15.456Z,10.10
2023-04-19T17:50:43.723Z,8.17
2023-04-19T17:53:11.974Z,9.93
2023-04-19T17:55:40.177Z,10.30
2023-04-19T17:58:08.324Z,10.33
2023-04-19T18:00:36.461Z,10.17
2023-04-19T18:03:07.198Z,9.27
2023-04-19T18:05:35.532Z,8.90
2023-04-19T18:08:03.705Z,8.13
2023-04-19T18:10:32.053Z,9.10
2023-04-19T18:13:00.225Z,8.63
2023-04-19T18:15:28.483Z,9.33
2023-04-19T18:17:56.798Z,9.73
2023-04-19T18:20:27.047Z,12.50
2023-04-19T18:22:55.688Z,9.70
2023-04-19T18:25:23.920Z,8.50
2023-04-19T18:27:52.064Z,8.30
2023-04-19T18:30:20.205Z,9.30
2023-04-19T18:32:48.585Z,9.43
2023-04-19T18:35:16.822Z,9.00
2023-04-19T18:37:46.315Z,10.17
2023-04-19T18:40:14.783Z,11.10
2023-04-19T18:42:42.935Z,9.80
2023-04-19T18:45:11.567Z,8.77
2023-04-19T18:47:39.735Z,9.60
2023-04-19T18:50:09.457Z,9.80
2023-04-19T18:52:38.946Z,10.13
2023-04-19T18:55:11.533Z,9.60
2023-04-19T18:57:39.835Z,9.73
2023-04-19T19:00:11.008Z,9.33
2023-04-19T19:02:41.210Z,10.53
2023-04-19T19:05:13.753Z,11.87
2023-04-19T19:07:42.450Z,10.40
2023-04-19T19:10:18.199Z,12.27
2023-04-19T19:12:49.504Z,10.23
2023-04-19T19:15:18.294Z,11.30
2023-04-19T19:17:49.902Z,11.17
2023-04-19T19:20:19.658Z,11.13
2023-04-19T19:22:48.264Z,10.50
2023-04-19T19:25:18.022Z,10.80
2023-04-19T19:28:05.490Z,11.33
2023-04-19T19:30:39.524Z,10.77
2023-04-19T19:33:07.953Z,10.97
2023-04-19T19:35:36.162Z,9.93
2023-04-19T19:38:04.402Z,10.87
2023-04-19T19:40:34.006Z,10.93
2023-04-19T19:43:02.774Z,11.30
2023-04-19T19:45:32.418Z,11.10
2023-04-19T19:48:01.035Z,10.60
2023-04-19T19:53:01.726Z,10.13
2023-04-19T19:55:30.177Z,8.40
2023-04-19T20:00:44.748Z,8.90
2023-04-19T20:03:13.624Z,10.10
2023-04-19T20:05:42.222Z,9.90
2023-04-19T20:08:12.781Z,11.40
2023-04-19T20:10:43.751Z,9.93
2023-04-19T20:13:13.892Z,10.33
2023-04-19T20:15:45.237Z,10.30
2023-04-19T20:18:13.703Z,10.13
2023-04-19T20:20:42.223Z,10.97
2023-04-19T20:23:11.306Z,11.57
2023-04-19T20:25:39.569Z,10.57
2023-04-19T20:28:09.345Z,12.53
2023-04-19T20:30:39.107Z,10.67
2023-04-19T20:33:07.363Z,12.50
2023-04-19T20:35:36.526Z,11.07
2023-04-19T20:38:04.673Z,11.60
2023-04-19T20:40:33.118Z,12.70
2023-04-19T20:43:01.525Z,10.70
2023-04-19T20:45:29.917Z,10.77
2023-04-19T20:47:59.689Z,11.97
2023-04-19T20:50:27.893Z,11.03
2023-04-19T20:52:56.657Z,10.80
2023-04-19T20:55:25.277Z,12.40
2023-04-19T20:57:53.562Z,12.03
2023-04-19T21:00:21.789Z,11.23
2023-04-19T21:02:50.093Z,13.57
2023-04-19T21:05:19.735Z,11.60
2023-04-19T21:07:48.117Z,14.13
2023-04-19T21:10:17.312Z,11.57
2023-04-19T21:12:45.771Z,12.33
2023-04-19T21:15:13.972Z,12.47
2023-04-19T21:17:42.505Z,13.33
2023-04-19T21:20:14.110Z,13.43
2023-04-19T21:22:44.641Z,11.80
2023-04-19T21:25:13.535Z,12.83
2023-04-19T21:27:42.424Z,12.17
2023-04-19T21:30:12.141Z,13.30
2023-04-19T21:32:40.475Z,12.30
2023-04-19T21:35:09.352Z,12.03
2023-04-19T21:37:37.791Z,11.67
2023-04-19T21:40:08.622Z,12.03
2023-04-19T21:42:37.036Z,13.10
2023-04-19T21:45:06.106Z,11.50
2023-04-19T21:47:34.283Z,13.07
2023-04-19T21:50:02.458Z,12.63
2023-04-19T21:52:30.611Z,11.50
2023-04-19T21:54:58.759Z,12.70
2023-04-19T21:57:28.283Z,12.83
2023-04-19T21:59:56.411Z,10.70
2023-04-19T22:02:24.875Z,11.10
2023-04-19T22:04:53.855Z,10.83
2023-04-19T22:07:24.069Z,10.90
2023-04-19T22:09:52.682Z,11.43
2023-04-19T22:12:20.861Z,10.77
2023-04-19T22:14:50.387Z,9.63
2023-04-19T22:17:19.441Z,10.53
2023-04-19T22:19:48.650Z,10.20
2023-04-19T22:22:16.817Z,9.10
2023-04-19T22:24:56.840Z,9.87
2023-04-19T22:27:26.664Z,10.27
2023-04-19T22:29:56.155Z,10.03
2023-04-19T22:32:24.386Z,9.60
2023-04-19T22:34:52.571Z,9.43
2023-04-19T22:37:20.693Z,9.53
2023-04-19T22:39:48.842Z,9.13
2023-04-19T22:42:17.035Z,10.67
2023-04-19T22:44:45.429Z,9.70
2023-04-19T22:47:15.391Z,11.07
2023-04-19T22:49:43.673Z,9.57
2023-04-19T22:52:11.938Z,10.20
2023-04-19T22:54:40.092Z,9.60
2023-04-19T22:57:08.368Z,8.90
2023-04-19T22:59:36.506Z,9.33
2023-04-19T23:02:04.825Z,9.63
2023-04-19T23:04:36.021Z,10.60
2023-04-19T23:07:04.872Z,10.57
2023-04-19T23:09:33.049Z,10.53
2023-04-19T23:12:01.932Z,8.93
2023-04-19T23:14:30.106Z,9.03
2023-04-19T23:16:58.510Z,9.40
2023-04-19T23:19:27.022Z,11.37
2023-04-19T23:21:56.748Z,9.70
2023-04-19T23:24:25.083Z,7.30
2023-04-19T23:26:53.199Z,9.70
2023-04-19T23:29:21.333Z,9.17
2023-04-19T23:31:49.540Z,10.10
2023-04-19T23:34:17.696Z,9.47
2023-04-19T23:36:45.913Z,8.63
2023-04-19T23:39:16.326Z,9.43
2023-04-19T23:41:44.774Z,9.13
2023-04-19T23:44:12.969Z,9.27
2023-04-19T23:46:41.123Z,9.00
2023-04-19T23:49:09.366Z,10.23
2023-04-19T23:51:37.488Z,9.30
2023-04-19T23:54:05.782Z,10.90
2023-04-19T23:56:35.331Z,10.37
2023-04-19T23:59:03.443Z,9.37
